アリススプリングス の空港の天気 - METARとTAF

アリス・スプリングス空港 ( YBAS / ASP ) - オーストラリア ノーザンテリトリーアリススプリングス
飛行場実況気象(Metar)
観測時間01/20 11:30 ACST (01/20 02:00 UTC)
風向・風速東 10m/s 瞬間風速15m/s
視程10km以上
天気現象
なし
気温40℃
湿度12%
気圧1013hPa
METARYBAS 200200Z AUTO 10019G30KT 9999 // NCD 40/05 Q1013 RF00.0/000.0
過去の天気等 Google飛行場航空写真 Wunderground天気予報

過去48時間のMETAR

飛行場予報(TAF)
発表時間: 1/20 08:35 ACST (1/19 23:05 UTC)
予報対象時間: 20日9時 ACST ~ 21日9時 ACST
風向・風速東南東 6m/s
視程10km以上
なし
20日11時 ACST から
風向・風速東 8m/s 瞬間風速 13m/s
視程10km以上
なし
20日17時 ACST から
風向・風速東 6m/s
視程10km以上
なし
20日21時 ACST から
風向・風速東北東 3m/s
視程10km以上
なし
TAF YBAS 192305Z 2000/2024 11012KT CAVOK
FM200200 09016G26KT CAVOK
FM200800 10012KT CAVOK
FM201200 06006KT CAVOK